Time;durP1;ratioP1;P1;durP2;ratioP2;P2;SDS_P1;SDS_P2;PMS_P1;PMS_P2;Temp;Humidity;BMP_temperature;BMP_pressure;BME280_temperature;BME280_humidity;BME280_pressure;Samples;Min_cycle;Max_cycle;Signal;HPM_P1;HPM_P2
2022/10/13 00:00:14;;;;;;;21.00;7.93;;;;;;;9.15;100.00;101959.91;5053657;28;20492;-75
2022/10/13 00:02:39;;;;;;;19.52;7.53;;;;;;;9.14;100.00;101954.72;5053404;28;20045;-75
2022/10/13 00:05:05;;;;;;;18.17;8.02;;;;;;;9.12;100.00;101960.13;5053232;28;20060;-75
2022/10/13 00:07:30;;;;;;;17.92;7.25;;;;;;;9.12;100.00;101960.13;5053718;28;20040;-75
2022/10/13 00:09:55;;;;;;;17.30;8.02;;;;;;;9.13;100.00;101956.50;5052142;28;20044;-75
2022/10/13 00:12:21;;;;;;;12.30;7.05;;;;;;;9.14;100.00;101957.34;5053821;28;20532;-75
2022/10/13 00:14:46;;;;;;;14.15;7.05;;;;;;;9.16;100.00;101955.44;5053613;28;20120;-75
2022/10/13 00:17:11;;;;;;;18.83;8.40;;;;;;;9.18;100.00;101951.75;5053216;28;20039;-75
2022/10/13 00:19:40;;;;;;;16.38;8.23;;;;;;;9.22;100.00;101944.41;5051930;28;20170;-75
2022/10/13 00:22:05;;;;;;;15.30;8.63;;;;;;;9.25;100.00;101946.00;5053292;28;20056;-75
2022/10/13 00:24:30;;;;;;;19.13;8.52;;;;;;;9.29;100.00;101947.50;5053045;28;20445;-75
2022/10/13 00:26:56;;;;;;;25.10;8.57;;;;;;;9.30;100.00;101949.19;5053694;28;20492;-74
2022/10/13 00:29:21;;;;;;;20.50;9.50;;;;;;;9.35;100.00;101947.09;5052023;28;20033;-75
2022/10/13 00:31:46;;;;;;;17.88;10.07;;;;;;;9.39;100.00;101945.94;5052911;28;20036;-75
2022/10/13 00:34:12;;;;;;;21.13;10.20;;;;;;;9.44;100.00;101951.78;5053073;28;20039;-75
2022/10/13 00:36:37;;;;;;;20.02;10.40;;;;;;;9.51;100.00;101955.72;5051788;28;20069;-75
2022/10/13 00:39:02;;;;;;;21.77;9.75;;;;;;;9.57;100.00;101956.25;5052819;28;20087;-75
2022/10/13 00:41:28;;;;;;;25.40;12.07;;;;;;;9.68;100.00;101954.56;5052922;28;20048;-75
2022/10/13 00:43:58;;;;;;;21.13;11.63;;;;;;;9.77;100.00;101952.22;5052822;28;20436;-75
2022/10/13 00:46:35;;;;;;;22.45;11.00;;;;;;;9.84;100.00;101959.66;5053425;28;20032;-75
2022/10/13 00:49:05;;;;;;;23.98;11.80;;;;;;;9.89;100.00;101954.03;5053427;28;20479;-74
2022/10/13 00:51:37;;;;;;;26.95;12.57;;;;;;;9.96;100.00;101957.97;5052744;28;20472;-76
2022/10/13 00:54:04;;;;;;;20.70;12.07;;;;;;;10.02;100.00;101943.38;5052573;28;20091;-75
2022/10/13 00:56:30;;;;;;;30.00;12.25;;;;;;;10.06;100.00;101951.03;5053226;28;20037;-75
2022/10/13 00:58:57;;;;;;;28.08;11.60;;;;;;;10.12;100.00;101956.88;5052702;28;20121;-75
2022/10/13 01:01:22;;;;;;;22.73;11.98;;;;;;;10.15;100.00;101951.31;5052610;28;20061;-75
2022/10/13 01:03:47;;;;;;;25.65;13.48;;;;;;;10.17;100.00;101950.25;5052714;28;20056;-74
2022/10/13 01:06:14;;;;;;;23.48;12.80;;;;;;;10.22;100.00;101952.59;5053496;28;20124;-75
2022/10/13 01:08:40;;;;;;;31.23;13.00;;;;;;;10.21;100.00;101943.78;5052642;28;20048;-75
2022/10/13 01:11:34;;;;;;;23.42;13.38;;;;;;;10.23;100.00;101941.00;5052537;28;20045;-75
2022/10/13 01:14:01;;;;;;;21.02;12.32;;;;;;;10.22;100.00;101940.13;5052998;28;20037;-75
2022/10/13 01:16:56;;;;;;;27.88;13.80;;;;;;;10.22;100.00;101950.78;5052826;28;20029;-75
2022/10/13 01:19:36;;;;;;;25.92;12.07;;;;;;;10.26;100.00;101946.09;5052779;28;20060;-74
2022/10/13 01:22:37;;;;;;;28.77;13.55;;;;;;;10.28;100.00;101936.19;5052879;28;20040;-74
2022/10/13 01:25:29;;;;;;;26.55;13.43;;;;;;;10.27;100.00;101937.16;5053219;28;20017;-74
2022/10/13 01:28:14;;;;;;;21.40;13.02;;;;;;;10.27;100.00;101936.31;5053247;28;20033;-73
2022/10/13 01:30:48;;;;;;;23.98;13.38;;;;;;;10.26;100.00;101940.78;5052426;28;20108;-72
2022/10/13 01:33:19;;;;;;;26.45;13.93;;;;;;;10.25;100.00;101955.03;5053011;28;20037;-72
2022/10/13 01:35:54;;;;;;;30.92;13.85;;;;;;;10.25;100.00;101944.38;5052312;28;20030;-72
2022/10/13 01:38:35;;;;;;;28.85;14.45;;;;;;;10.24;100.00;101932.91;5051571;28;20402;-72
2022/10/13 01:41:23;;;;;;;29.60;14.45;;;;;;;10.26;100.00;101935.47;5053469;28;20450;-72
2022/10/13 01:44:00;;;;;;;30.27;14.55;;;;;;;10.25;100.00;101925.78;5056757;28;20037;-72
2022/10/13 01:46:30;;;;;;;33.33;15.27;;;;;;;10.26;100.00;101914.19;5056226;28;20085;-73
2022/10/13 01:49:00;;;;;;;30.08;15.13;;;;;;;10.27;100.00;101904.38;5057051;28;20032;-72
2022/10/13 01:51:28;;;;;;;24.02;14.38;;;;;;;10.28;100.00;101925.56;5056059;28;20033;-73
2022/10/13 01:53:54;;;;;;;30.38;15.05;;;;;;;10.27;100.00;101917.69;5056167;28;20108;-73
2022/10/13 01:56:19;;;;;;;30.50;15.15;;;;;;;10.28;100.00;101906.09;5055866;28;20060;-73
2022/10/13 01:58:48;;;;;;;28.92;15.30;;;;;;;10.28;100.00;101908.75;5056096;28;20033;-74
2022/10/13 02:02:17;;;;;;;30.95;16.27;;;;;;;10.26;100.00;101889.41;5055970;28;20032;-73
2022/10/13 02:04:59;;;;;;;28.75;15.60;;;;;;;10.24;100.00;101874.41;4994420;28;20049;-73
2022/10/13 02:07:37;;;;;;;34.03;16.25;;;;;;;10.23;100.00;101877.16;4994145;28;20180;-73
2022/10/13 02:10:17;;;;;;;35.83;17.50;;;;;;;10.20;100.00;101872.06;5045833;28;20041;-72
2022/10/13 02:12:53;;;;;;;31.55;16.25;;;;;;;10.19;100.00;101879.19;5055486;28;20035;-73
2022/10/13 02:15:24;;;;;;;28.20;16.55;;;;;;;10.19;100.00;101878.34;5055709;28;20037;-72
2022/10/13 02:17:51;;;;;;;31.65;17.00;;;;;;;10.22;100.00;101880.78;5071658;28;20029;-72
2022/10/13 02:20:19;;;;;;;30.35;15.63;;;;;;;10.23;100.00;101879.84;5055510;28;20091;-72
2022/10/13 02:22:47;;;;;;;34.63;16.42;;;;;;;10.27;100.00;101881.31;5055336;28;20036;-73
2022/10/13 02:25:13;;;;;;;33.42;17.33;;;;;;;10.29;100.00;101866.06;5055826;28;20071;-73
2022/10/13 02:27:39;;;;;;;32.67;16.73;;;;;;;10.29;100.00;101866.06;5055545;28;20106;-74
2022/10/13 02:30:05;;;;;;;28.80;16.33;;;;;;;10.30;100.00;101873.09;5055291;28;20044;-73
2022/10/13 02:32:31;;;;;;;31.77;16.30;;;;;;;10.30;100.00;101867.78;5055352;28;20036;-73
2022/10/13 02:34:56;;;;;;;33.17;17.80;;;;;;;10.34;100.00;101863.94;5055277;28;20051;-73
2022/10/13 02:37:24;;;;;;;36.47;17.05;;;;;;;10.35;100.00;101864.81;5055689;28;20468;-73
2022/10/13 02:39:49;;;;;;;36.78;17.13;;;;;;;10.36;100.00;101863.84;5055277;28;20033;-73
2022/10/13 02:42:15;;;;;;;36.20;17.23;;;;;;;10.36;100.00;101851.41;5055265;28;20040;-73
2022/10/13 02:44:40;;;;;;;39.88;17.23;;;;;;;10.38;100.00;101868.09;5055160;28;20036;-74
2022/10/13 02:47:05;;;;;;;31.38;16.70;;;;;;;10.38;100.00;101859.28;5055484;28;20036;-73
2022/10/13 02:49:30;;;;;;;42.60;18.05;;;;;;;10.38;100.00;101865.44;5054995;28;20024;-73
2022/10/13 02:51:56;;;;;;;38.72;18.13;;;;;;;10.41;100.00;101864.38;5054867;28;20028;-73
2022/10/13 02:54:21;;;;;;;34.70;18.67;;;;;;;10.42;100.00;101866.06;5053466;28;20029;-73
2022/10/13 02:56:47;;;;;;;44.25;19.17;;;;;;;10.44;100.00;101871.28;5055420;28;20358;-73
2022/10/13 02:59:12;;;;;;;42.03;20.55;;;;;;;10.47;100.00;101871.88;5054775;28;20107;-73
2022/10/13 03:01:40;;;;;;;41.50;19.75;;;;;;;10.51;100.00;101864.50;5054891;28;20030;-73
2022/10/13 03:04:06;;;;;;;41.88;19.65;;;;;;;10.54;100.00;101859.84;5054759;28;20496;-73
2022/10/13 03:06:32;;;;;;;40.67;20.27;;;;;;;10.55;100.00;101856.22;5055302;28;20032;-73
2022/10/13 03:08:58;;;;;;;38.25;19.33;;;;;;;10.54;100.00;101849.19;5054685;28;20033;-74
2022/10/13 03:11:23;;;;;;;39.50;18.05;;;;;;;10.56;100.00;101844.59;5054972;28;20049;-73
2022/10/13 03:13:48;;;;;;;39.35;18.33;;;;;;;10.56;100.00;101833.09;5054868;28;20029;-74
2022/10/13 03:16:14;;;;;;;36.50;18.80;;;;;;;10.58;100.00;101840.03;5054819;28;20025;-73
2022/10/13 03:18:39;;;;;;;35.42;17.33;;;;;;;10.58;100.00;101839.16;5054426;28;20037;-73
2022/10/13 03:21:05;;;;;;;32.95;17.15;;;;;;;10.57;100.00;101834.81;5054468;28;20033;-72
2022/10/13 03:23:31;;;;;;;34.88;17.55;;;;;;;10.58;100.00;101833.84;5054535;28;20075;-72
2022/10/13 03:25:57;;;;;;;35.17;17.13;;;;;;;10.57;100.00;101827.66;5054444;28;20103;-74
2022/10/13 03:28:23;;;;;;;39.90;17.40;;;;;;;10.59;100.00;101824.91;5054299;28;20037;-72
2022/10/13 03:30:48;;;;;;;40.47;17.63;;;;;;;10.62;100.00;101831.81;5054486;28;20485;-74
2022/10/13 03:33:14;;;;;;;39.58;17.00;;;;;;;10.62;100.00;101831.81;5054143;28;20033;-73
2022/10/13 03:35:39;;;;;;;40.65;17.00;;;;;;;10.61;100.00;101824.78;5054178;28;20086;-73
2022/10/13 03:38:05;;;;;;;34.53;17.33;;;;;;;10.59;100.00;101822.22;5054084;28;20378;-73
2022/10/13 03:40:30;;;;;;;35.08;17.98;;;;;;;10.56;100.00;101804.66;5054043;28;20029;-74
2022/10/13 03:42:55;;;;;;;35.58;16.98;;;;;;;10.53;100.00;101798.75;5054220;28;20037;-73
2022/10/13 03:45:21;;;;;;;40.03;17.92;;;;;;;10.51;100.00;101798.00;5053320;28;20115;-73
2022/10/13 03:47:46;;;;;;;39.13;17.45;;;;;;;10.51;100.00;101805.97;5053915;28;20116;-73
2022/10/13 03:50:12;;;;;;;38.85;17.63;;;;;;;10.47;100.00;101808.03;5053879;28;20139;-73
2022/10/13 03:52:37;;;;;;;42.63;18.38;;;;;;;10.47;100.00;101817.84;5053541;28;20036;-73
2022/10/13 03:55:03;;;;;;;45.88;18.60;;;;;;;10.48;100.00;101828.38;5053995;28;20036;-73
2022/10/13 03:57:29;;;;;;;40.63;18.92;;;;;;;10.50;100.00;101823.75;5053752;28;20079;-73
2022/10/13 03:59:56;;;;;;;44.17;19.17;;;;;;;10.51;100.00;101825.47;5054063;28;20044;-73
2022/10/13 04:02:22;;;;;;;44.58;20.58;;;;;;;10.56;100.00;101825.13;5053594;28;20103;-73
2022/10/13 04:04:47;;;;;;;43.78;20.17;;;;;;;10.58;100.00;101826.72;5053410;28;20025;-73
2022/10/13 04:07:12;;;;;;;39.55;19.42;;;;;;;10.61;100.00;101833.59;5053791;28;20037;-74
2022/10/13 04:09:39;;;;;;;44.17;20.15;;;;;;;10.63;100.00;101834.34;5053555;28;20033;-73
2022/10/13 04:12:04;;;;;;;39.30;19.13;;;;;;;10.65;100.00;101829.75;5053741;28;20112;-74
2022/10/13 04:14:29;;;;;;;47.05;21.67;;;;;;;10.68;100.00;101829.50;5053514;28;20122;-73
2022/10/13 04:16:55;;;;;;;42.20;20.25;;;;;;;10.69;100.00;101823.25;5051965;28;20462;-74
2022/10/13 04:19:20;;;;;;;46.53;20.15;;;;;;;10.70;100.00;101824.06;5053364;28;20037;-73
2022/10/13 04:21:46;;;;;;;40.38;20.30;;;;;;;10.71;100.00;101826.63;5053376;28;20090;-73
2022/10/13 04:24:12;;;;;;;54.67;21.17;;;;;;;10.71;100.00;101818.63;5053435;28;20467;-73
2022/10/13 04:26:37;;;;;;;48.05;20.83;;;;;;;10.72;100.00;101816.84;5053590;28;20137;-73
2022/10/13 04:29:04;;;;;;;44.03;21.13;;;;;;;10.74;100.00;101818.41;5053478;28;20103;-73
2022/10/13 04:31:30;;;;;;;47.10;20.48;;;;;;;10.74;100.00;101817.56;5053540;28;20047;-73
2022/10/13 04:33:56;;;;;;;48.75;20.08;;;;;;;10.73;100.00;101810.53;5053073;28;20025;-74
2022/10/13 04:36:22;;;;;;;42.50;20.23;;;;;;;10.73;100.00;101811.41;5052914;28;20056;-73
2022/10/13 04:38:48;;;;;;;45.45;20.70;;;;;;;10.75;100.00;101811.28;5053341;28;20029;-73
2022/10/13 04:41:16;;;;;;;47.70;20.55;;;;;;;10.74;100.00;101812.25;5051833;28;20483;-73
2022/10/13 04:43:42;;;;;;;42.17;20.38;;;;;;;10.74;100.00;101804.25;5052982;28;20044;-73
2022/10/13 04:46:12;;;;;;;40.90;19.50;;;;;;;10.75;100.00;101819.28;5053103;28;20029;-73
2022/10/13 04:48:37;;;;;;;48.63;20.58;;;;;;;10.75;100.00;101816.59;5053001;28;20068;-73
2022/10/13 04:51:14;;;;;;;39.58;20.17;;;;;;;10.74;100.00;101809.56;5052943;28;20064;-72
2022/10/13 04:53:41;;;;;;;44.58;20.83;;;;;;;10.75;100.00;101819.28;5053273;28;20108;-72
2022/10/13 04:56:08;;;;;;;51.15;20.70;;;;;;;10.75;100.00;101821.94;5052615;28;20032;-73
2022/10/13 04:58:35;;;;;;;46.35;19.95;;;;;;;10.74;100.00;101822.88;5052765;28;20033;-73
2022/10/13 05:01:01;;;;;;;43.40;21.13;;;;;;;10.75;100.00;101822.78;5052833;28;20048;-74
2022/10/13 05:03:26;;;;;;;45.92;20.65;;;;;;;10.76;100.00;101816.50;5053188;28;20120;-73
2022/10/13 05:05:52;;;;;;;43.55;19.65;;;;;;;10.77;100.00;101806.69;5053351;28;20033;-72
2022/10/13 05:08:18;;;;;;;45.80;20.50;;;;;;;10.76;100.00;101812.97;5052753;28;20060;-73
2022/10/13 05:10:52;;;;;;;48.08;21.60;;;;;;;10.79;100.00;101819.88;5052801;28;20473;-74
2022/10/13 05:13:17;;;;;;;52.20;21.75;;;;;;;10.81;100.00;101817.94;5053136;28;20103;-73
2022/10/13 05:15:43;;;;;;;49.13;21.35;;;;;;;10.82;100.00;101812.50;5053144;28;20140;-73
2022/10/13 05:18:08;;;;;;;50.20;22.00;;;;;;;10.84;100.00;101815.91;5057338;28;20078;-73
2022/10/13 05:20:33;;;;;;;53.08;20.92;;;;;;;10.84;100.00;101813.25;5055665;28;20091;-73
2022/10/13 05:22:59;;;;;;;46.05;20.23;;;;;;;10.84;100.00;101807.91;5056733;28;20033;-73
2022/10/13 05:25:24;;;;;;;51.00;22.40;;;;;;;10.85;100.00;101812.28;5056637;28;20033;-72
2022/10/13 05:27:49;;;;;;;50.20;21.08;;;;;;;10.86;100.00;101819.28;5057041;28;20108;-72
2022/10/13 05:30:15;;;;;;;45.40;20.35;;;;;;;10.86;100.00;101811.28;5056635;28;20033;-72
2022/10/13 05:32:40;;;;;;;42.58;19.13;;;;;;;10.83;100.00;101814.19;5056525;28;20108;-72
2022/10/13 05:35:06;;;;;;;49.72;20.48;;;;;;;10.85;100.00;101806.09;5055910;28;20051;-72
2022/10/13 05:37:31;;;;;;;51.58;20.55;;;;;;;10.86;100.00;101805.97;5056418;28;20032;-72
2022/10/13 05:39:57;;;;;;;47.67;19.95;;;;;;;10.88;100.00;101804.06;5056367;28;20032;-72
2022/10/13 05:42:22;;;;;;;50.35;20.00;;;;;;;10.89;100.00;101816.38;5056624;28;20037;-73
2022/10/13 05:44:47;;;;;;;52.95;20.55;;;;;;;10.91;100.00;101808.28;5056712;28;20032;-72
2022/10/13 05:47:13;;;;;;;46.05;20.08;;;;;;;10.91;100.00;101798.50;5055851;28;20040;-73
2022/10/13 05:49:38;;;;;;;56.00;20.98;;;;;;;10.90;100.00;101802.13;5056222;28;20025;-72
2022/10/13 05:52:09;;;;;;;47.17;20.85;;;;;;;10.89;100.00;101796.91;5056280;28;20040;-72
2022/10/13 05:54:39;;;;;;;48.97;20.73;;;;;;;10.89;100.00;101786.25;5056220;28;20029;-72
2022/10/13 05:57:15;;;;;;;44.75;20.08;;;;;;;10.89;100.00;101781.78;5056616;28;20028;-73
2022/10/13 05:59:47;;;;;;;45.08;19.73;;;;;;;10.89;100.00;101775.63;5054349;28;20476;-73
2022/10/13 06:02:14;;;;;;;43.45;20.88;;;;;;;10.89;100.00;101764.97;5056217;28;20032;-72
2022/10/13 06:04:45;;;;;;;52.85;21.33;;;;;;;10.90;100.00;101764.00;5055687;28;20041;-72
2022/10/13 06:07:11;;;;;;;48.08;20.77;;;;;;;10.92;100.00;101762.91;5055990;28;20530;-73
2022/10/13 06:09:39;;;;;;;46.30;20.92;;;;;;;10.93;100.00;101769.09;5055877;28;20021;-73
2022/10/13 06:12:05;;;;;;;41.78;20.80;;;;;;;10.92;100.00;101768.22;5055627;28;20144;-73
2022/10/13 06:14:31;;;;;;;43.75;20.88;;;;;;;10.93;100.00;101767.25;5055746;28;20032;-73
2022/10/13 06:16:56;;;;;;;50.80;21.77;;;;;;;10.92;100.00;101767.38;5055473;28;20083;-72
2022/10/13 06:19:22;;;;;;;52.05;20.23;;;;;;;10.94;100.00;101776.97;5056064;28;20453;-73
2022/10/13 06:21:47;;;;;;;43.75;20.23;;;;;;;10.96;100.00;101773.31;5056210;28;20373;-72
2022/10/13 06:24:12;;;;;;;42.70;20.52;;;;;;;10.95;100.00;101783.13;5055702;28;20108;-73
2022/10/13 06:26:38;;;;;;;44.25;20.17;;;;;;;10.95;100.00;101777.78;5054141;28;20025;-72
2022/10/13 06:29:03;;;;;;;44.97;19.15;;;;;;;10.96;100.00;101786.63;5055725;28;20167;-73
2022/10/13 06:31:29;;;;;;;39.72;19.38;;;;;;;10.96;100.00;101795.47;5055329;28;20537;-72
2022/10/13 06:33:54;;;;;;;43.40;20.35;;;;;;;10.97;100.00;101794.50;5055003;28;20053;-72
2022/10/13 06:36:19;;;;;;;43.75;19.83;;;;;;;11.02;100.00;101796.81;5055204;28;20126;-73
2022/10/13 06:38:45;;;;;;;47.45;21.15;;;;;;;11.03;100.00;101799.38;5055300;28;20033;-74
2022/10/13 06:41:13;;;;;;;52.95;21.55;;;;;;;11.06;100.00;101798.25;5054780;28;20092;-72
2022/10/13 06:43:38;;;;;;;53.35;22.92;;;;;;;11.08;100.00;101799.84;5055005;28;20033;-72
2022/10/13 06:46:04;;;;;;;47.33;21.88;;;;;;;11.10;100.00;101797.06;5055197;28;20036;-72
2022/10/13 06:48:30;;;;;;;52.78;22.65;;;;;;;11.13;100.00;101798.66;5054936;28;20040;-72
2022/10/13 06:50:59;;;;;;;49.60;22.65;;;;;;;11.14;100.00;101789.66;5055602;28;20037;-73
2022/10/13 06:53:25;;;;;;;51.38;23.98;;;;;;;11.13;100.00;101790.66;5053964;28;20388;-74
2022/10/13 06:55:50;;;;;;;49.33;22.60;;;;;;;11.15;100.00;101794.91;5053556;28;20029;-73
2022/10/13 06:58:15;;;;;;;52.33;24.15;;;;;;;11.17;100.00;101786.78;5053745;28;20040;-73
2022/10/13 07:00:41;;;;;;;47.78;22.67;;;;;;;11.19;100.00;101785.69;5053298;28;20043;-73
2022/10/13 07:03:06;;;;;;;47.78;21.48;;;;;;;11.19;100.00;101785.69;5054987;28;20037;-74
2022/10/13 07:05:32;;;;;;;51.28;22.70;;;;;;;11.20;100.00;101792.72;5054904;28;20465;-74
2022/10/13 07:07:57;;;;;;;50.00;21.70;;;;;;;11.21;100.00;101786.44;5054955;28;20462;-74
2022/10/13 07:10:23;;;;;;;48.60;21.40;;;;;;;11.23;100.00;101786.31;5055026;28;20039;-74
2022/10/13 07:12:48;;;;;;;37.92;20.55;;;;;;;11.26;100.00;101783.41;5055221;28;20429;-73
2022/10/13 07:15:13;;;;;;;42.88;19.38;;;;;;;11.27;100.00;101788.63;5054757;28;20450;-73
2022/10/13 07:17:39;;;;;;;45.80;19.83;;;;;;;11.29;100.00;101772.50;5070464;28;20152;-74
2022/10/13 07:20:05;;;;;;;44.80;19.73;;;;;;;11.30;100.00;101768.88;5054683;28;20075;-73
2022/10/13 07:22:31;;;;;;;42.42;19.98;;;;;;;11.35;100.00;101766.69;5054775;28;20063;-74
2022/10/13 07:24:56;;;;;;;41.80;18.10;;;;;;;11.43;100.00;101763.41;5054562;28;20041;-73
2022/10/13 07:27:22;;;;;;;34.88;18.42;;;;;;;11.51;100.00;101771.66;5054396;28;20116;-74
2022/10/13 07:29:48;;;;;;;36.88;17.80;;;;;;;11.60;100.00;101786.06;5054474;28;20438;-74
2022/10/13 07:32:13;;;;;;;36.45;17.15;;;;;;;11.67;100.00;101789.91;5054404;28;20028;-73
2022/10/13 07:34:38;;;;;;;33.92;16.67;;;;;;;11.76;100.00;101789.19;5054557;28;20201;-73
2022/10/13 07:37:04;;;;;;;35.20;16.20;;;;;;;11.87;100.00;101779.47;5054268;28;20065;-73
2022/10/13 07:39:29;;;;;;;29.25;16.02;;;;;;;11.96;100.00;101774.25;5053429;28;20485;-73
2022/10/13 07:41:55;;;;;;;36.35;17.05;;;;;;;12.06;100.00;101777.03;5054011;28;20468;-74
2022/10/13 07:44:21;;;;;;;30.83;14.88;;;;;;;12.09;100.00;101778.59;5053190;28;20044;-74
2022/10/13 07:46:46;;;;;;;25.38;13.68;;;;;;;12.08;100.00;101775.09;5052614;28;20044;-74
2022/10/13 07:49:11;;;;;;;26.83;13.43;;;;;;;12.11;100.00;101774.00;5054181;28;20063;-74
2022/10/13 07:51:37;;;;;;;29.20;13.93;;;;;;;12.19;100.00;101779.53;5053760;28;20543;-74
2022/10/13 07:54:02;;;;;;;26.25;13.68;;;;;;;12.26;100.00;101778.06;5054129;28;20435;-74
2022/10/13 07:56:27;;;;;;;24.95;12.63;;;;;;;12.32;100.00;101784.72;5053965;28;20122;-75
2022/10/13 07:58:53;;;;;;;25.60;12.43;;;;;;;12.39;100.00;101790.38;5053969;28;20037;-74
2022/10/13 08:01:18;;;;;;;23.88;10.73;;;;;;;12.35;100.00;101784.44;5054163;28;20036;-74
2022/10/13 08:03:44;;;;;;;24.48;11.23;;;;;;;12.40;100.00;101790.25;5053861;28;20040;-75
2022/10/13 08:06:10;;;;;;;22.48;10.05;;;;;;;12.39;100.00;101791.22;5069212;28;20473;-74
2022/10/13 08:08:36;;;;;;;17.83;9.63;;;;;;;12.34;100.00;101788.09;5053751;28;20039;-75
2022/10/13 08:11:07;;;;;;;22.58;11.57;;;;;;;12.29;100.00;101788.47;5054192;28;20122;-74
2022/10/13 08:13:32;;;;;;;25.05;10.60;;;;;;;12.30;100.00;101781.31;5054221;28;20064;-74
2022/10/13 08:16:01;;;;;;;24.73;10.95;;;;;;;12.34;100.00;101783.59;5054043;28;20076;-74
2022/10/13 08:18:28;;;;;;;22.92;10.80;;;;;;;12.37;100.00;101784.31;5053561;28;20068;-76
2022/10/13 08:20:54;;;;;;;20.58;10.30;;;;;;;12.40;100.00;101787.56;5053676;28;20028;-74
2022/10/13 08:23:19;;;;;;;20.90;10.25;;;;;;;12.45;100.00;101785.38;5053666;28;20017;-74
2022/10/13 08:25:45;;;;;;;16.80;9.95;;;;;;;12.51;100.00;101786.69;5053727;28;20412;-75
2022/10/13 08:28:25;;;;;;;22.25;10.40;;;;;;;12.50;100.00;101777.81;5068977;28;20047;-74
2022/10/13 08:30:52;;;;;;;18.23;9.23;;;;;;;12.49;100.00;101781.44;5053447;28;20056;-74
2022/10/13 08:33:18;;;;;;;17.30;9.48;;;;;;;12.45;100.00;101782.72;5053438;28;20025;-73
2022/10/13 08:35:43;;;;;;;13.48;8.18;;;;;;;12.48;100.00;101774.44;5053035;28;20056;-73
2022/10/13 08:38:08;;;;;;;20.75;9.13;;;;;;;12.54;100.00;101773.09;5053148;28;20124;-73
2022/10/13 08:40:36;;;;;;;14.02;8.68;;;;;;;12.62;100.00;101770.59;5052010;28;20029;-73
2022/10/13 08:43:05;;;;;;;23.23;10.13;;;;;;;12.72;100.00;101775.16;5053261;28;20055;-73
2022/10/13 08:45:31;;;;;;;22.00;9.95;;;;;;;12.83;100.00;101778.59;5053059;28;20028;-74
2022/10/13 08:48:02;;;;;;;15.90;9.45;;;;;;;12.92;100.00;101766.28;5053177;28;20024;-74
2022/10/13 08:50:30;;;;;;;14.18;8.32;;;;;;;12.98;100.00;101771.09;5052479;28;20043;-74
2022/10/13 08:53:20;;;;;;;16.42;8.38;;;;;;;13.04;100.00;101775.06;5053061;28;20037;-74
2022/10/13 08:55:54;;;;;;;14.73;8.27;;;;;;;13.02;100.00;101780.56;5047350;28;20040;-74
2022/10/13 08:58:24;;;;;;;13.35;7.57;;;;;;;13.00;100.00;101787.00;5053322;28;20033;-74
2022/10/13 09:01:03;;;;;;;13.75;7.80;;;;;;;12.91;100.00;101788.63;5052863;28;20052;-74
2022/10/13 09:03:29;;;;;;;14.80;8.02;;;;;;;12.80;100.00;101786.88;5053354;28;20159;-74
2022/10/13 09:06:17;;;;;;;14.15;8.50;;;;;;;12.70;100.00;101788.63;5053136;28;20247;-73
2022/10/13 09:08:51;;;;;;;14.23;8.27;;;;;;;12.67;100.00;101786.22;5052071;28;20041;-74
2022/10/13 09:11:16;;;;;;;15.48;7.50;;;;;;;12.76;100.00;101787.28;5052909;28;20064;-73
2022/10/13 09:13:42;;;;;;;11.18;7.15;;;;;;;12.85;100.00;101789.16;5053096;28;20401;-74
2022/10/13 09:16:07;;;;;;;13.07;7.80;;;;;;;12.91;100.00;101787.78;5052916;28;20039;-74
2022/10/13 09:18:33;;;;;;;14.98;7.93;;;;;;;12.91;100.00;101791.31;5052773;28;20036;-74
2022/10/13 09:21:21;;;;;;;13.57;7.93;;;;;;;12.96;100.00;101783.75;5052357;28;20393;-74
2022/10/13 09:23:52;;;;;;;14.88;7.65;;;;;;;12.92;100.00;101781.47;5053291;28;20382;-74
2022/10/13 09:26:22;;;;;;;9.93;6.75;;;;;;;12.90;100.00;101783.41;5053311;28;20025;-74
2022/10/13 09:28:48;;;;;;;11.50;6.60;;;;;;;12.88;100.00;101784.41;5051339;28;20106;-74
2022/10/13 09:31:26;;;;;;;14.30;7.45;;;;;;;12.84;100.00;101774.97;5052890;28;20065;-74
2022/10/13 09:33:59;;;;;;;12.77;7.55;;;;;;;12.86;100.00;101778.34;5052738;28;20346;-74
2022/10/13 09:36:25;;;;;;;9.57;7.10;;;;;;;12.78;100.00;101772.81;5052553;28;20055;-74
2022/10/13 09:39:26;;;;;;;13.35;7.72;;;;;;;12.69;100.00;101763.78;5052673;28;20470;-74
2022/10/13 09:42:17;;;;;;;16.65;8.30;;;;;;;12.69;100.00;101765.59;4990947;28;20034;-75
2022/10/13 09:44:42;;;;;;;16.40;9.55;;;;;;;12.70;100.00;101761.94;5050464;28;20497;-74
2022/10/13 09:47:17;;;;;;;14.45;9.10;;;;;;;12.74;100.00;101760.72;5052865;28;20040;-74
2022/10/13 09:49:43;;;;;;;18.85;9.68;;;;;;;12.82;100.00;101770.72;5052522;28;20025;-74
2022/10/13 09:52:11;;;;;;;14.80;8.50;;;;;;;12.86;100.00;101762.31;5052816;28;20025;-74
2022/10/13 09:54:45;;;;;;;19.00;9.20;;;;;;;12.94;100.00;101769.66;5053067;28;20029;-74
2022/10/13 09:57:29;;;;;;;17.80;9.50;;;;;;;13.02;100.00;101769.88;5052580;28;20033;-72
2022/10/13 10:00:12;;;;;;;15.35;9.07;;;;;;;13.10;100.00;101776.38;5052715;28;20029;-74
2022/10/13 10:02:44;;;;;;;15.02;9.50;;;;;;;13.09;100.00;101762.16;5054518;28;20033;-74
2022/10/13 10:05:50;;;;;;;18.60;10.77;;;;;;;13.08;100.00;101771.16;5055793;28;20388;-74
2022/10/13 10:08:54;;;;;;;18.25;10.48;;;;;;;13.12;100.00;101766.41;5055988;28;20194;-74
2022/10/13 10:11:33;;;;;;;21.77;12.32;;;;;;;13.21;100.00;101758.44;5014159;28;20532;-74
2022/10/13 10:14:15;;;;;;;18.50;11.27;;;;;;;13.36;100.00;101756.28;5014561;28;20026;-74
2022/10/13 10:16:45;;;;;;;23.92;12.00;;;;;;;13.52;100.00;101745.06;5028326;28;20049;-73
2022/10/13 10:20:00;;;;;;;20.55;11.52;;;;;;;13.72;100.00;101748.63;5051303;28;20119;-74
2022/10/13 10:22:38;;;;;;;24.15;11.32;;;;;;;13.75;100.00;101744.84;5034019;28;20131;-74
2022/10/13 10:25:17;;;;;;;19.25;11.45;;;;;;;13.77;100.00;101747.38;5036122;28;20049;-74
2022/10/13 10:28:14;;;;;;;26.73;11.15;;;;;;;13.69;100.00;101740.03;5036274;28;20033;-75
2022/10/13 10:30:52;;;;;;;19.33;11.40;;;;;;;13.53;100.00;101738.72;5035988;28;20358;-74
2022/10/13 10:33:39;;;;;;;17.92;10.95;;;;;;;13.38;100.00;101735.59;5035398;28;20037;-74
2022/10/13 10:36:15;;;;;;;24.48;12.35;;;;;;;13.27;100.00;101738.34;5035900;28;20033;-74
2022/10/13 10:38:50;;;;;;;18.45;12.20;;;;;;;13.20;100.00;101739.88;5035789;28;20037;-74
2022/10/13 10:41:41;;;;;;;23.65;12.18;;;;;;;13.16;100.00;101733.09;5036069;28;20075;-73
2022/10/13 10:44:07;;;;;;;22.85;11.73;;;;;;;13.14;100.00;101735.06;5034975;28;20371;-73
2022/10/13 10:46:41;;;;;;;19.55;11.77;;;;;;;13.07;100.00;101741.91;5050731;28;20112;-75
2022/10/13 10:49:18;;;;;;;20.52;12.57;;;;;;;13.03;100.00;101733.31;5035119;28;20068;-74
2022/10/13 10:51:45;;;;;;;26.55;13.40;;;;;;;13.04;100.00;101735.00;5035560;28;20029;-74
2022/10/13 10:54:22;;;;;;;21.30;12.63;;;;;;;13.01;100.00;101735.28;5035510;28;20052;-74
2022/10/13 10:56:54;;;;;;;20.95;13.13;;;;;;;12.95;100.00;101733.13;5034885;28;20029;-75
2022/10/13 10:59:59;;;;;;;18.60;13.00;;;;;;;12.89;100.00;101729.16;5034938;28;20030;-74
2022/10/13 11:02:55;;;;;;;25.17;13.18;;;;;;;12.84;100.00;101726.91;5035172;28;20523;-74
2022/10/13 11:05:21;;;;;;;25.13;13.85;;;;;;;12.78;100.00;101730.09;5034891;28;20474;-75
2022/10/13 11:07:46;;;;;;;21.95;13.50;;;;;;;12.74;100.00;101727.81;5034883;28;20040;-75
2022/10/13 11:10:11;;;;;;;23.58;14.00;;;;;;;12.73;100.00;101718.13;5034839;28;20108;-75
2022/10/13 11:12:52;;;;;;;25.38;15.70;;;;;;;12.74;100.00;101722.47;5069394;28;20477;-76
2022/10/13 11:15:30;;;;;;;24.42;14.38;;;;;;;12.80;100.00;101724.63;5053702;28;20450;-72